Washburn, Iowa
Current Conditions -  °F | °C
As of 9:54 PM on Friday 28 Nov 2014 (Local Time) from KALO Reporting Station
Haze Haze  
Wind Chill: 18°   Ceiling: Unl
Heat Index: 27°   Visibility: 6mi
Dew Point: 25°   Wind: 9mph
Humidity: 92%   Direction: 130°SE
Pressure: 29.73"   Gusts: NA
Location:  42.4105°N, 92.272°W
Report Text: KALO 290354Z 13008KT 6SM BR CLR M03/M04 A2973 RMK AO2 SLP081 T10281039
Loading
Personal Weather Stations






























Interactive Weather Map New forecast layout! Learn more

10-Day Weather Forecast

Advertisements
Track Severe Weather on mobile